Terminal Aerodrome Forecast
Issued by NWS Topeka, KS

Home | Current Version | Previous Version | Text Only | Print | Product List | Glossary Off
Versions: 1 2 3 4 5 6 7 8 9 10 11 12 13 14 15 16 17 18 19 20 21 22 23 24 25 26

689
FTUS43 KTOP 191042 AAC
TAFTOP
TAF AMD
KTOP 191042Z 1911/2006 13004KT 4SM BR OVC004
     FM191400 14004KT 2SM -DZ BR OVC003
     FM191600 14004KT 3SM -DZ BR OVC003
     FM191800 15005KT P6SM OVC006
     FM192000 14006KT P6SM OVC011
     FM200300 VRB03KT P6SM OVC006=

USA.gov is the U.S. government's official web portal to all federal, state and local government web resources and services.